createdAt,value
2023-05-25T00:01:16.551Z,100012.81
2023-05-25T00:04:03.159Z,100006.84
2023-05-25T00:06:47.770Z,100001.13
2023-05-25T00:09:32.133Z,99999.94
2023-05-25T00:12:16.570Z,99985.38
2023-05-25T00:15:00.658Z,99989.19
2023-05-25T00:17:44.478Z,99993.28
2023-05-25T00:20:29.781Z,99989.41
2023-05-25T00:23:13.664Z,99990.19
2023-05-25T00:25:57.628Z,99993.31
2023-05-25T00:28:41.475Z,100000.69
2023-05-25T00:31:25.481Z,99991.41
2023-05-25T00:34:09.406Z,99995.44
2023-05-25T00:36:55.181Z,99984.53
2023-05-25T00:39:39.022Z,99994.88
2023-05-25T00:42:25.085Z,99988.41
2023-05-25T00:45:09.707Z,99996.56
2023-05-25T00:47:54.386Z,100003.28
2023-05-25T00:50:42.022Z,99991.63
2023-05-25T00:53:27.437Z,99986.31
2023-05-25T00:56:20.332Z,99994.31
2023-05-25T00:59:07.866Z,99986.19
2023-05-25T01:01:54.171Z,99977.75
2023-05-25T01:04:41.967Z,99984.47
2023-05-25T01:07:27.964Z,99991.25
2023-05-25T01:10:16.894Z,99990.69
2023-05-25T01:13:03.280Z,99988.78
2023-05-25T01:15:48.357Z,99991.81
2023-05-25T01:18:33.732Z,99984.78
2023-05-25T01:21:23.113Z,99988.97
2023-05-25T01:24:12.317Z,99990.09
2023-05-25T01:27:01.800Z,99990.88
2023-05-25T01:29:48.211Z,99962.28
2023-05-25T01:32:33.536Z,99970.91
2023-05-25T01:35:19.960Z,99987.25
2023-05-25T01:38:05.935Z,99987.03
2023-05-25T01:40:49.835Z,99988.47
2023-05-25T01:43:33.775Z,99987.06
2023-05-25T01:46:24.708Z,99989.03
2023-05-25T01:49:17.916Z,99982.00
2023-05-25T01:52:09.199Z,99958.63
2023-05-25T01:55:02.201Z,99982.41
2023-05-25T01:57:52.820Z,99980.56
2023-05-25T02:00:37.780Z,99985.34
2023-05-25T02:03:22.725Z,99980.75
2023-05-25T02:06:07.144Z,99974.75
2023-05-25T02:08:52.513Z,99986.00
2023-05-25T02:11:37.866Z,99996.78
2023-05-25T02:14:22.138Z,99937.59
2023-05-25T02:17:07.549Z,100003.72
2023-05-25T02:19:53.287Z,99974.63
2023-05-25T02:22:38.034Z,100000.78
2023-05-25T02:25:24.342Z,99999.06
2023-05-25T02:28:09.561Z,100011.38
2023-05-25T02:30:53.531Z,99997.72
2023-05-25T02:33:37.535Z,100012.50
2023-05-25T02:36:21.880Z,99993.31
2023-05-25T02:39:05.793Z,100009.97
2023-05-25T02:41:49.713Z,100012.97
2023-05-25T02:44:35.016Z,100017.22
2023-05-25T02:47:19.908Z,100008.38
2023-05-25T02:50:04.131Z,100014.03
2023-05-25T02:52:52.118Z,100012.53
2023-05-25T02:55:35.969Z,100014.03
2023-05-25T02:58:20.107Z,100013.16
2023-05-25T03:01:26.143Z,100017.09
2023-05-25T03:04:12.120Z,100022.75
2023-05-25T03:06:56.968Z,100024.66
2023-05-25T03:09:41.234Z,99991.72
2023-05-25T03:12:25.327Z,100031.88
2023-05-25T03:15:13.253Z,100041.88
2023-05-25T03:18:01.512Z,100038.41
2023-05-25T03:20:50.334Z,100020.81
2023-05-25T03:23:35.166Z,100041.34
2023-05-25T03:26:23.064Z,100033.03
2023-05-25T03:29:08.130Z,100040.88
2023-05-25T03:31:52.434Z,100034.50
2023-05-25T03:34:42.868Z,99993.31
2023-05-25T03:37:30.310Z,100010.38
2023-05-25T03:40:15.226Z,100006.47
2023-05-25T03:42:59.365Z,100012.94
2023-05-25T03:45:43.609Z,100041.31
2023-05-25T03:48:28.144Z,100019.59
2023-05-25T03:51:13.364Z,100036.47
2023-05-25T03:53:57.249Z,100033.78
2023-05-25T03:56:41.439Z,100037.75
2023-05-25T03:59:25.670Z,100034.31
2023-05-25T04:02:09.673Z,100040.47
2023-05-25T04:04:53.895Z,100031.53
2023-05-25T04:07:40.797Z,100044.19
2023-05-25T04:10:24.777Z,100041.13
2023-05-25T04:13:08.645Z,100031.63
2023-05-25T04:15:52.719Z,100052.28
2023-05-25T04:18:40.167Z,100052.56
2023-05-25T04:21:24.502Z,100048.47
2023-05-25T04:24:09.973Z,100053.97
2023-05-25T04:26:54.277Z,100013.34
2023-05-25T04:29:38.441Z,100060.88
2023-05-25T04:32:22.454Z,100056.22
2023-05-25T04:35:10.972Z,100065.84
2023-05-25T04:38:03.116Z,100059.31
2023-05-25T04:40:49.313Z,100046.38
2023-05-25T04:43:33.926Z,100072.31
2023-05-25T04:46:19.073Z,100058.72
2023-05-25T04:49:03.012Z,100070.34
2023-05-25T04:51:46.910Z,100064.34
2023-05-25T05:07:06.312Z,100087.22
2023-05-25T05:09:50.704Z,100048.66
2023-05-25T05:12:34.946Z,100087.94
2023-05-25T05:15:19.955Z,100085.31
2023-05-25T05:18:06.567Z,100087.56
2023-05-25T05:20:50.739Z,100090.47
2023-05-25T05:23:36.815Z,100090.16
2023-05-25T05:26:21.449Z,100082.09
2023-05-25T05:29:06.457Z,100091.66
2023-05-25T05:31:53.384Z,100078.31
2023-05-25T05:34:37.684Z,100090.13
2023-05-25T05:37:26.394Z,100094.13
2023-05-25T05:40:12.925Z,100092.84
2023-05-25T05:42:59.882Z,100102.53
2023-05-25T05:45:43.967Z,100106.25
2023-05-25T05:48:28.157Z,100110.84
2023-05-25T05:51:12.761Z,100101.59
2023-05-25T05:53:56.749Z,100115.16
2023-05-25T05:56:42.570Z,100122.66
2023-05-25T05:59:26.728Z,100117.47
2023-05-25T06:02:10.787Z,100111.88
2023-05-25T06:04:54.857Z,100117.56
2023-05-25T06:07:39.771Z,100123.09
2023-05-25T06:10:23.738Z,99977.34
2023-05-25T06:13:09.569Z,100118.53
2023-05-25T06:15:53.600Z,100119.22
2023-05-25T06:18:40.826Z,100120.88
2023-05-25T06:21:24.693Z,100099.59
2023-05-25T06:24:09.375Z,100122.75
2023-05-25T06:26:53.327Z,100113.53
2023-05-25T06:29:38.960Z,100115.03
2023-05-25T06:32:22.984Z,100105.63
2023-05-25T06:35:08.071Z,100093.75
2023-05-25T06:37:52.882Z,100096.72
2023-05-25T06:40:37.244Z,100116.53
2023-05-25T06:43:21.444Z,100119.34
2023-05-25T06:46:26.820Z,100127.31
2023-05-25T06:49:10.894Z,100128.88
2023-05-25T06:51:54.827Z,100128.78
2023-05-25T06:54:38.621Z,100122.25
2023-05-25T06:57:22.809Z,100122.13
2023-05-25T07:00:12.295Z,100119.03
2023-05-25T07:02:57.667Z,100119.47
2023-05-25T07:05:41.586Z,100116.44
2023-05-25T07:08:25.516Z,99992.03
2023-05-25T07:11:12.494Z,100104.59
2023-05-25T07:13:56.421Z,100117.91
2023-05-25T07:16:40.266Z,100115.09
2023-05-25T07:19:25.545Z,100116.91
2023-05-25T07:22:09.883Z,100125.19
2023-05-25T07:24:53.884Z,100117.16
2023-05-25T07:27:37.828Z,100127.31
2023-05-25T07:30:22.159Z,100126.88
2023-05-25T07:33:06.071Z,100123.94
2023-05-25T07:35:51.908Z,100123.13
2023-05-25T07:38:35.878Z,100127.47
2023-05-25T07:41:19.880Z,100118.63
2023-05-25T07:44:03.806Z,100114.44
2023-05-25T07:46:47.692Z,100117.97
2023-05-25T07:49:31.609Z,100114.44
2023-05-25T07:52:16.849Z,100102.88
2023-05-25T07:55:00.716Z,100099.34
2023-05-25T07:57:44.597Z,100118.75
2023-05-25T08:00:29.040Z,100111.13
2023-05-25T08:03:13.812Z,100114.09
2023-05-25T08:05:57.798Z,100121.88
2023-05-25T08:08:45.019Z,100043.00
2023-05-25T08:11:28.919Z,100116.91
2023-05-25T08:14:12.773Z,100132.84
2023-05-25T08:16:56.680Z,100125.88
2023-05-25T08:19:40.706Z,100120.63
2023-05-25T08:22:24.624Z,100122.72
2023-05-25T08:25:11.299Z,100109.59
2023-05-25T08:27:55.207Z,100119.72
2023-05-25T08:30:39.065Z,100118.41
2023-05-25T08:33:25.145Z,100122.16
2023-05-25T08:36:10.307Z,100118.97
2023-05-25T08:38:54.138Z,100125.25
2023-05-25T08:41:46.142Z,100097.34
2023-05-25T08:44:30.191Z,100096.97
2023-05-25T08:47:15.772Z,100124.50
2023-05-25T08:50:04.133Z,100125.69
2023-05-25T08:52:53.004Z,100134.22
2023-05-25T08:55:40.860Z,100119.47
2023-05-25T08:58:32.192Z,100117.50
2023-05-25T09:01:20.137Z,100119.84
2023-05-25T09:04:05.068Z,100119.25
2023-05-25T09:07:05.695Z,100124.44
2023-05-25T09:09:53.289Z,100119.81
2023-05-25T09:12:39.345Z,100120.25
2023-05-25T09:15:24.870Z,100126.69
2023-05-25T09:18:09.531Z,100125.09
2023-05-25T09:20:55.497Z,100133.63
2023-05-25T09:23:40.281Z,100126.78
2023-05-25T09:26:24.299Z,100121.66
2023-05-25T09:29:08.206Z,100115.88
2023-05-25T09:31:53.753Z,100109.25
2023-05-25T09:34:37.586Z,100121.94
2023-05-25T09:37:22.017Z,100127.53
2023-05-25T09:40:07.312Z,100130.59
2023-05-25T09:42:52.075Z,100125.19
2023-05-25T09:45:38.288Z,100133.63
2023-05-25T09:48:24.471Z,100132.31
2023-05-25T09:51:09.364Z,100137.31
2023-05-25T09:53:53.441Z,100126.88
2023-05-25T09:56:37.802Z,100125.81
2023-05-25T09:59:23.975Z,100132.22
2023-05-25T10:02:08.086Z,100109.84
2023-05-25T10:04:53.532Z,100133.78
2023-05-25T10:07:40.398Z,100129.66
2023-05-25T10:10:25.233Z,100140.00
2023-05-25T10:13:10.608Z,100147.22
2023-05-25T10:15:55.379Z,100141.13
2023-05-25T10:18:45.109Z,100156.47
2023-05-25T10:21:31.728Z,100130.22
2023-05-25T10:24:25.789Z,100141.19
2023-05-25T10:27:26.267Z,100145.63
2023-05-25T10:30:15.289Z,100145.75
2023-05-25T10:32:59.536Z,100140.59
2023-05-25T10:36:01.380Z,100149.50
2023-05-25T10:38:48.734Z,100103.88
2023-05-25T10:41:32.690Z,100149.84
2023-05-25T10:44:17.600Z,100144.34
2023-05-25T10:47:01.805Z,100138.84
2023-05-25T10:49:57.878Z,100122.94
2023-05-25T10:52:42.168Z,100123.81
2023-05-25T10:55:31.888Z,100123.91
2023-05-25T10:58:17.673Z,100131.50
2023-05-25T11:01:03.761Z,100128.25
2023-05-25T11:03:58.847Z,100103.44
2023-05-25T11:07:16.460Z,100120.47
2023-05-25T11:10:00.525Z,100115.97
2023-05-25T11:12:47.709Z,100121.16
2023-05-25T11:15:31.846Z,100103.81
2023-05-25T11:18:16.386Z,100115.28
2023-05-25T11:21:13.369Z,100113.84
2023-05-25T11:23:58.958Z,100113.34
2023-05-25T11:26:59.933Z,100100.97
2023-05-25T11:29:45.280Z,100102.91
2023-05-25T11:32:29.381Z,100083.56
2023-05-25T11:35:13.580Z,100104.28
2023-05-25T11:37:57.386Z,100094.84
2023-05-25T11:40:41.448Z,100073.34
2023-05-25T11:43:26.944Z,100081.03
2023-05-25T11:46:12.717Z,100077.88
2023-05-25T11:48:56.959Z,100067.25
2023-05-25T11:51:40.891Z,100068.09
2023-05-25T11:54:25.818Z,100068.31
2023-05-25T11:57:16.326Z,100070.16
2023-05-25T12:00:06.869Z,100062.66
2023-05-25T12:02:53.288Z,100056.16
2023-05-25T12:05:41.414Z,100056.81
2023-05-25T12:08:33.710Z,100046.56
2023-05-25T12:11:17.857Z,100028.56
2023-05-25T12:14:02.692Z,100040.72
2023-05-25T12:16:47.007Z,100031.25
2023-05-25T12:19:33.177Z,100043.84
2023-05-25T12:22:17.664Z,100043.25
2023-05-25T12:25:01.757Z,100044.94
2023-05-25T12:27:47.270Z,100051.00
2023-05-25T12:30:31.244Z,100070.66
2023-05-25T12:33:16.117Z,100071.59
2023-05-25T12:36:01.537Z,100074.81
2023-05-25T12:39:00.162Z,100098.91
2023-05-25T12:41:49.439Z,100096.91
2023-05-25T12:44:35.757Z,100110.53
2023-05-25T12:47:22.643Z,100125.25
2023-05-25T12:50:13.957Z,100106.06
2023-05-25T12:53:04.189Z,100134.03
2023-05-25T12:55:48.354Z,100141.28
2023-05-25T12:58:32.370Z,100154.03
2023-05-25T13:01:16.741Z,100142.72
2023-05-25T13:04:00.706Z,100132.41
2023-05-25T13:06:44.473Z,100158.28
2023-05-25T13:09:30.036Z,100154.66
2023-05-25T13:12:13.908Z,100130.03
2023-05-25T13:14:57.852Z,100142.66
2023-05-25T13:17:43.957Z,100131.22
2023-05-25T13:20:29.845Z,100108.06
2023-05-25T13:23:13.944Z,100122.34
2023-05-25T13:25:59.512Z,100113.66
2023-05-25T13:28:43.354Z,100103.00
2023-05-25T13:31:27.441Z,100113.06
2023-05-25T13:34:11.789Z,100085.97
2023-05-25T13:36:55.677Z,100089.53
2023-05-25T13:39:39.629Z,100079.78
2023-05-25T13:42:25.166Z,100074.91
2023-05-25T13:45:10.267Z,100073.03
2023-05-25T13:47:54.415Z,100053.78
2023-05-25T13:50:38.432Z,100055.97
2023-05-25T13:53:22.353Z,100047.44
2023-05-25T13:56:06.972Z,100040.84
2023-05-25T13:58:52.224Z,100025.88
2023-05-25T14:01:36.417Z,100028.50
2023-05-25T14:04:20.350Z,100023.84
2023-05-25T14:07:04.532Z,99986.47
2023-05-25T14:09:48.590Z,99992.56
2023-05-25T14:12:32.990Z,99981.81
2023-05-25T14:15:18.726Z,99977.09
2023-05-25T14:18:02.815Z,99988.34
2023-05-25T14:20:46.961Z,99970.59
2023-05-25T14:23:31.361Z,99980.91
2023-05-25T14:26:15.261Z,99969.44
2023-05-25T14:28:59.118Z,99961.88
2023-05-25T14:31:44.324Z,99961.03
2023-05-25T14:34:28.803Z,99951.22
2023-05-25T14:37:13.299Z,99955.28
2023-05-25T14:39:57.238Z,99946.06
2023-05-25T14:42:41.245Z,99937.41
2023-05-25T14:45:25.005Z,99928.53
2023-05-25T14:51:00.300Z,99929.28
2023-05-25T14:53:44.168Z,99926.75
2023-05-25T14:56:28.583Z,99914.69
2023-05-25T14:59:12.554Z,99919.19
2023-05-25T15:01:56.483Z,99919.13
2023-05-25T15:04:41.862Z,99925.47
2023-05-25T15:07:25.781Z,99917.13
2023-05-25T15:10:10.582Z,99932.25
2023-05-25T15:12:54.378Z,99933.44
2023-05-25T15:15:38.307Z,99929.63
2023-05-25T15:18:22.422Z,99919.94
2023-05-25T15:21:07.877Z,99923.44
2023-05-25T15:23:51.732Z,99915.56
2023-05-25T15:26:35.474Z,99933.41
2023-05-25T15:29:19.357Z,99937.69
2023-05-25T15:32:03.254Z,99937.81
2023-05-25T15:34:47.521Z,99912.81
2023-05-25T15:37:33.019Z,99919.06
2023-05-25T15:40:16.998Z,99947.38
2023-05-25T15:43:00.742Z,99954.75
2023-05-25T15:45:45.013Z,99953.16
2023-05-25T15:48:29.048Z,99968.06
2023-05-25T15:51:12.968Z,99967.72
2023-05-25T15:53:58.251Z,99973.16
2023-05-25T15:56:42.215Z,99978.91
2023-05-25T15:59:26.104Z,99970.69
2023-05-25T16:02:09.963Z,99965.31
2023-05-25T16:04:53.850Z,99974.63
2023-05-25T16:07:37.721Z,99983.00
2023-05-25T16:10:22.923Z,99974.94
2023-05-25T16:13:06.882Z,99980.25
2023-05-25T16:15:50.831Z,99971.09
2023-05-25T16:18:34.782Z,99974.41
2023-05-25T16:21:18.792Z,99977.75
2023-05-25T16:24:02.818Z,99976.06
2023-05-25T16:26:48.274Z,99969.69
2023-05-25T16:29:32.332Z,99940.56
2023-05-25T16:32:16.555Z,99979.31
2023-05-25T16:35:00.651Z,99975.00
2023-05-25T16:37:45.984Z,99982.66
2023-05-25T16:40:30.309Z,99979.97
2023-05-25T16:43:15.694Z,99992.19
2023-05-25T16:45:59.692Z,99991.31
2023-05-25T16:48:43.582Z,99986.09
2023-05-25T16:51:27.432Z,99987.91
2023-05-25T16:54:11.457Z,99990.22
2023-05-25T16:56:55.382Z,99996.56
2023-05-25T16:59:41.057Z,99993.38
2023-05-25T17:02:25.241Z,100004.34
2023-05-25T17:05:09.956Z,100003.41
2023-05-25T17:07:53.938Z,100004.88
2023-05-25T17:10:37.977Z,100005.63
2023-05-25T17:13:22.205Z,100003.31
2023-05-25T17:16:07.660Z,100018.78
2023-05-25T17:18:51.687Z,100005.19
2023-05-25T17:21:35.906Z,99989.47
2023-05-25T17:24:19.809Z,99995.06
2023-05-25T17:27:03.831Z,100011.25
2023-05-25T17:29:47.770Z,100011.47
2023-05-25T17:32:33.090Z,99998.69
2023-05-25T17:35:17.048Z,100017.69
2023-05-25T17:38:00.898Z,100001.06
2023-05-25T17:40:45.019Z,100008.81
2023-05-25T17:43:28.863Z,100012.47
2023-05-25T17:46:13.045Z,100018.31
2023-05-25T17:48:58.488Z,100018.25
2023-05-25T17:51:42.411Z,100018.13
2023-05-25T17:54:27.462Z,100029.06
2023-05-25T17:57:11.406Z,100024.16
2023-05-25T17:59:55.318Z,99967.63
2023-05-25T18:02:39.397Z,100036.47
2023-05-25T18:05:24.864Z,100037.63
2023-05-25T18:08:08.748Z,100013.69
2023-05-25T18:10:53.051Z,100044.22
2023-05-25T18:13:37.003Z,100028.66
2023-05-25T18:16:20.914Z,100052.44
2023-05-25T18:19:04.893Z,100049.91
2023-05-25T18:21:50.194Z,100025.53
2023-05-25T18:24:34.155Z,100043.44
2023-05-25T18:27:18.328Z,100031.47
2023-05-25T18:30:02.309Z,100046.44
2023-05-25T18:32:49.572Z,100045.25
2023-05-25T18:35:33.866Z,100026.78
2023-05-25T18:38:19.460Z,100052.81
2023-05-25T18:41:03.724Z,100028.94
2023-05-25T18:43:49.289Z,100022.69
2023-05-25T18:46:33.477Z,100017.19
2023-05-25T18:49:17.429Z,100050.13
2023-05-25T18:52:01.613Z,100049.41
2023-05-25T18:54:48.765Z,100047.78
2023-05-25T18:57:33.175Z,100028.63
2023-05-25T19:00:17.920Z,100029.44
2023-05-25T19:03:02.060Z,100055.59
2023-05-25T19:05:46.303Z,100050.56
2023-05-25T19:08:30.589Z,100056.91
2023-05-25T19:11:16.007Z,100056.09
2023-05-25T19:13:59.903Z,100055.16
2023-05-25T19:16:44.468Z,100054.66
2023-05-25T19:19:29.588Z,100030.47
2023-05-25T19:22:13.648Z,100060.53
2023-05-25T19:25:01.111Z,100025.63
2023-05-25T19:27:49.832Z,99996.63
2023-05-25T19:30:34.176Z,100033.06
2023-05-25T19:33:18.506Z,100008.63
2023-05-25T19:36:02.694Z,100057.41
2023-05-25T19:38:47.248Z,100064.81
2023-05-25T19:41:31.260Z,100068.53
2023-05-25T19:44:16.654Z,100065.53
2023-05-25T19:47:01.038Z,100073.66
2023-05-25T19:49:44.885Z,100055.63
2023-05-25T19:52:28.889Z,100081.50
2023-05-25T19:55:12.966Z,100079.13
2023-05-25T19:57:56.889Z,100084.16
2023-05-25T20:00:42.168Z,100082.81
2023-05-25T20:03:26.164Z,100070.16
2023-05-25T20:06:10.269Z,100061.59
2023-05-25T20:08:54.215Z,100074.19
2023-05-25T20:11:38.161Z,100070.16
2023-05-25T20:14:22.221Z,100067.34
2023-05-25T20:17:07.517Z,100069.00
2023-05-25T20:19:51.551Z,100041.72
2023-05-25T20:22:35.546Z,100070.22
2023-05-25T20:25:19.498Z,100071.53
2023-05-25T20:28:04.046Z,100061.22
2023-05-25T20:30:48.170Z,100035.06
2023-05-25T20:33:33.833Z,100033.47
2023-05-25T20:36:18.541Z,100063.50
2023-05-25T20:39:03.310Z,100035.13
2023-05-25T20:41:47.749Z,100033.03
2023-05-25T20:44:32.207Z,100025.06
2023-05-25T20:47:16.330Z,100049.97
2023-05-25T20:50:01.940Z,100052.91
2023-05-25T20:52:48.244Z,100023.44
2023-05-25T20:55:32.540Z,100021.13
2023-05-25T20:58:16.785Z,100057.50
2023-05-25T21:01:01.096Z,100018.22
2023-05-25T21:03:45.418Z,100016.59
2023-05-25T21:06:32.444Z,100049.63
2023-05-25T21:09:16.572Z,100043.81
2023-05-25T21:12:01.724Z,100049.28
2023-05-25T21:14:45.834Z,100007.66
2023-05-25T21:17:30.095Z,100005.81
2023-05-25T21:20:14.459Z,100032.88
2023-05-25T21:23:00.730Z,100048.59
2023-05-25T21:25:45.319Z,100043.88
2023-05-25T21:28:29.525Z,100037.72
2023-05-25T21:31:13.447Z,100049.63
2023-05-25T21:33:59.311Z,100037.25
2023-05-25T21:36:43.970Z,100041.28
2023-05-25T21:39:29.179Z,100018.59
2023-05-25T21:42:13.163Z,100036.97
2023-05-25T21:44:57.032Z,100010.19
2023-05-25T21:47:40.914Z,100024.53
2023-05-25T21:50:24.725Z,100026.31
2023-05-25T21:53:08.672Z,100030.19
2023-05-25T21:55:53.987Z,100030.00
2023-05-25T21:58:37.933Z,100020.50
2023-05-25T22:01:22.050Z,100024.69
2023-05-25T22:04:06.068Z,100018.53
2023-05-25T22:06:49.924Z,99999.63
2023-05-25T22:09:33.879Z,100023.75
2023-05-25T22:12:20.859Z,99985.00
2023-05-25T22:15:05.368Z,100014.72
2023-05-25T22:17:49.679Z,100010.91
2023-05-25T22:20:33.867Z,99986.97
2023-05-25T22:23:17.736Z,100002.44
2023-05-25T22:26:01.567Z,100004.44
2023-05-25T22:28:46.910Z,100006.19
2023-05-25T22:31:31.034Z,100003.06
2023-05-25T22:34:14.876Z,100002.56
2023-05-25T22:36:58.741Z,99985.34
2023-05-25T22:39:42.717Z,99989.88
2023-05-25T22:42:26.682Z,99983.41
2023-05-25T22:45:12.609Z,99995.56
2023-05-25T22:47:56.481Z,99995.44
2023-05-25T22:50:40.370Z,99977.41
2023-05-25T22:53:24.318Z,100001.25
2023-05-25T22:56:08.576Z,99995.06
2023-05-25T22:58:52.414Z,100001.25
2023-05-25T23:01:37.748Z,99991.25
2023-05-25T23:04:21.753Z,100002.09
2023-05-25T23:07:06.080Z,99994.22
2023-05-25T23:09:49.965Z,99998.47
2023-05-25T23:12:33.830Z,99988.28
2023-05-25T23:15:18.581Z,99999.84
2023-05-25T23:18:03.910Z,99985.63
2023-05-25T23:20:47.852Z,100002.59
2023-05-25T23:23:31.721Z,99999.94
2023-05-25T23:26:15.609Z,100002.72
2023-05-25T23:28:59.465Z,99976.44
2023-05-25T23:31:43.529Z,99985.41
2023-05-25T23:34:29.090Z,99991.78
2023-05-25T23:37:13.076Z,99963.59
2023-05-25T23:39:56.936Z,99976.94
2023-05-25T23:42:44.388Z,99986.25
2023-05-25T23:45:28.368Z,99967.81
2023-05-25T23:48:12.346Z,99994.59
2023-05-25T23:50:57.676Z,99991.41
2023-05-25T23:53:41.758Z,100003.91
2023-05-25T23:56:27.947Z,100003.81
2023-05-25T23:59:15.160Z,100001.84
